sensor_id;sensor_type;location;lat;lon;timestamp;temperature;humidity
21259;DHT22;10787;53.364;-1.480;2023-09-18T00:00:05;17.10;1.00
21259;DHT22;10787;53.364;-1.480;2023-09-18T00:02:53;17.10;1.00
21259;DHT22;10787;53.364;-1.480;2023-09-18T00:05:37;17.10;1.00
21259;DHT22;10787;53.364;-1.480;2023-09-18T00:08:21;17.10;1.00
21259;DHT22;10787;53.364;-1.480;2023-09-18T00:11:06;17.10;1.00
21259;DHT22;10787;53.364;-1.480;2023-09-18T00:13:51;17.00;1.00
21259;DHT22;10787;53.364;-1.480;2023-09-18T00:16:35;17.00;1.00
21259;DHT22;10787;53.364;-1.480;2023-09-18T00:19:19;17.00;1.00
21259;DHT22;10787;53.364;-1.480;2023-09-18T00:22:04;17.00;1.00
21259;DHT22;10787;53.364;-1.480;2023-09-18T00:24:48;17.00;1.00
21259;DHT22;10787;53.364;-1.480;2023-09-18T00:27:32;17.10;1.00
21259;DHT22;10787;53.364;-1.480;2023-09-18T00:30:16;17.10;1.00
21259;DHT22;10787;53.364;-1.480;2023-09-18T00:33:01;17.10;1.00
21259;DHT22;10787;53.364;-1.480;2023-09-18T00:35:47;17.10;6.70
21259;DHT22;10787;53.364;-1.480;2023-09-18T00:38:31;17.20;1.00
21259;DHT22;10787;53.364;-1.480;2023-09-18T00:41:15;17.20;1.00
21259;DHT22;10787;53.364;-1.480;2023-09-18T00:43:59;17.20;1.00
21259;DHT22;10787;53.364;-1.480;2023-09-18T00:46:44;17.30;1.00
21259;DHT22;10787;53.364;-1.480;2023-09-18T00:49:28;17.30;1.00
21259;DHT22;10787;53.364;-1.480;2023-09-18T00:52:12;17.30;1.00
21259;DHT22;10787;53.364;-1.480;2023-09-18T00:54:58;17.30;1.00
21259;DHT22;10787;53.364;-1.480;2023-09-18T00:57:44;17.30;1.00
21259;DHT22;10787;53.364;-1.480;2023-09-18T01:00:29;17.30;1.00
21259;DHT22;10787;53.364;-1.480;2023-09-18T01:03:14;17.30;1.00
21259;DHT22;10787;53.364;-1.480;2023-09-18T01:06:01;17.30;17.30
21259;DHT22;10787;53.364;-1.480;2023-09-18T01:08:45;17.30;5.10
21259;DHT22;10787;53.364;-1.480;2023-09-18T01:11:36;17.30;84.80
21259;DHT22;10787;53.364;-1.480;2023-09-18T01:17:16;17.30;50.50
21259;DHT22;10787;53.364;-1.480;2023-09-18T01:20:00;17.20;99.40
21259;DHT22;10787;53.364;-1.480;2023-09-18T01:22:45;17.20;69.10
21259;DHT22;10787;53.364;-1.480;2023-09-18T01:25:31;17.20;32.60
21259;DHT22;10787;53.364;-1.480;2023-09-18T01:28:17;17.20;47.20
21259;DHT22;10787;53.364;-1.480;2023-09-18T01:31:01;17.20;48.00
21259;DHT22;10787;53.364;-1.480;2023-09-18T01:33:45;17.20;60.20
21259;DHT22;10787;53.364;-1.480;2023-09-18T01:36:31;17.20;41.40
21259;DHT22;10787;53.364;-1.480;2023-09-18T01:39:17;17.20;34.00
21259;DHT22;10787;53.364;-1.480;2023-09-18T01:42:03;17.20;43.10
21259;DHT22;10787;53.364;-1.480;2023-09-18T01:44:49;17.20;52.80
21259;DHT22;10787;53.364;-1.480;2023-09-18T01:47:33;17.20;99.90
21259;DHT22;10787;53.364;-1.480;2023-09-18T01:50:17;17.20;99.90
21259;DHT22;10787;53.364;-1.480;2023-09-18T01:53:01;17.20;99.90
21259;DHT22;10787;53.364;-1.480;2023-09-18T01:55:46;17.20;99.90
21259;DHT22;10787;53.364;-1.480;2023-09-18T01:58:32;17.20;99.90
21259;DHT22;10787;53.364;-1.480;2023-09-18T02:01:16;17.20;99.90
21259;DHT22;10787;53.364;-1.480;2023-09-18T02:04:00;17.20;99.90
21259;DHT22;10787;53.364;-1.480;2023-09-18T02:06:44;17.20;99.90
21259;DHT22;10787;53.364;-1.480;2023-09-18T02:09:29;17.10;99.90
21259;DHT22;10787;53.364;-1.480;2023-09-18T02:12:13;17.10;99.90
21259;DHT22;10787;53.364;-1.480;2023-09-18T02:15:01;17.10;99.90
21259;DHT22;10787;53.364;-1.480;2023-09-18T02:17:49;17.10;99.90
21259;DHT22;10787;53.364;-1.480;2023-09-18T02:20:40;17.00;99.90
21259;DHT22;10787;53.364;-1.480;2023-09-18T02:23:25;17.00;1.00
21259;DHT22;10787;53.364;-1.480;2023-09-18T02:26:09;17.00;1.00
21259;DHT22;10787;53.364;-1.480;2023-09-18T02:28:54;17.00;1.00
21259;DHT22;10787;53.364;-1.480;2023-09-18T02:31:39;17.00;1.00
21259;DHT22;10787;53.364;-1.480;2023-09-18T02:34:24;17.10;1.00
21259;DHT22;10787;53.364;-1.480;2023-09-18T02:37:08;17.00;1.00
21259;DHT22;10787;53.364;-1.480;2023-09-18T02:39:52;17.00;1.00
21259;DHT22;10787;53.364;-1.480;2023-09-18T02:42:36;17.10;1.00
21259;DHT22;10787;53.364;-1.480;2023-09-18T02:45:20;17.10;1.00
21259;DHT22;10787;53.364;-1.480;2023-09-18T02:48:04;17.10;1.00
21259;DHT22;10787;53.364;-1.480;2023-09-18T02:50:49;17.10;1.00
21259;DHT22;10787;53.364;-1.480;2023-09-18T02:53:33;17.10;1.00
21259;DHT22;10787;53.364;-1.480;2023-09-18T02:56:17;17.10;1.00
21259;DHT22;10787;53.364;-1.480;2023-09-18T02:59:01;17.10;1.00
21259;DHT22;10787;53.364;-1.480;2023-09-18T03:01:45;17.10;1.00
21259;DHT22;10787;53.364;-1.480;2023-09-18T03:04:31;17.10;1.00
21259;DHT22;10787;53.364;-1.480;2023-09-18T03:07:15;17.10;1.00
21259;DHT22;10787;53.364;-1.480;2023-09-18T03:10:00;17.10;1.00
21259;DHT22;10787;53.364;-1.480;2023-09-18T03:12:48;17.10;1.00
21259;DHT22;10787;53.364;-1.480;2023-09-18T03:15:32;17.10;1.00
21259;DHT22;10787;53.364;-1.480;2023-09-18T03:18:16;17.10;1.00
21259;DHT22;10787;53.364;-1.480;2023-09-18T03:21:01;17.10;1.00
21259;DHT22;10787;53.364;-1.480;2023-09-18T03:23:45;17.10;1.00
21259;DHT22;10787;53.364;-1.480;2023-09-18T03:26:29;17.10;1.00
21259;DHT22;10787;53.364;-1.480;2023-09-18T03:29:13;17.00;1.00
21259;DHT22;10787;53.364;-1.480;2023-09-18T03:31:57;17.00;1.00
21259;DHT22;10787;53.364;-1.480;2023-09-18T03:34:42;17.00;1.00
21259;DHT22;10787;53.364;-1.480;2023-09-18T03:37:27;16.90;1.00
21259;DHT22;10787;53.364;-1.480;2023-09-18T03:40:11;16.90;99.90
21259;DHT22;10787;53.364;-1.480;2023-09-18T03:42:55;16.90;1.00
21259;DHT22;10787;53.364;-1.480;2023-09-18T03:45:39;16.90;1.00
21259;DHT22;10787;53.364;-1.480;2023-09-18T03:48:27;16.90;1.00
21259;DHT22;10787;53.364;-1.480;2023-09-18T03:51:11;16.90;1.00
21259;DHT22;10787;53.364;-1.480;2023-09-18T03:53:59;16.90;1.00
21259;DHT22;10787;53.364;-1.480;2023-09-18T03:56:43;16.90;1.00
21259;DHT22;10787;53.364;-1.480;2023-09-18T03:59:27;16.90;1.00
21259;DHT22;10787;53.364;-1.480;2023-09-18T04:02:12;16.90;1.00
21259;DHT22;10787;53.364;-1.480;2023-09-18T04:04:57;16.90;1.00
21259;DHT22;10787;53.364;-1.480;2023-09-18T04:07:41;16.90;1.00
21259;DHT22;10787;53.364;-1.480;2023-09-18T04:10:29;16.90;1.00
21259;DHT22;10787;53.364;-1.480;2023-09-18T04:13:13;16.90;1.00
21259;DHT22;10787;53.364;-1.480;2023-09-18T04:15:57;16.80;1.00
21259;DHT22;10787;53.364;-1.480;2023-09-18T04:18:44;16.90;1.00
21259;DHT22;10787;53.364;-1.480;2023-09-18T04:21:29;16.80;1.00
21259;DHT22;10787;53.364;-1.480;2023-09-18T04:24:13;16.80;1.00
21259;DHT22;10787;53.364;-1.480;2023-09-18T04:26:57;16.80;1.00
21259;DHT22;10787;53.364;-1.480;2023-09-18T04:29:42;16.80;1.00
21259;DHT22;10787;53.364;-1.480;2023-09-18T04:32:27;16.80;1.00
21259;DHT22;10787;53.364;-1.480;2023-09-18T04:35:13;16.80;1.00
21259;DHT22;10787;53.364;-1.480;2023-09-18T04:37:59;16.80;1.00
21259;DHT22;10787;53.364;-1.480;2023-09-18T04:40:43;16.80;1.00
21259;DHT22;10787;53.364;-1.480;2023-09-18T04:43:28;16.80;1.00
21259;DHT22;10787;53.364;-1.480;2023-09-18T04:46:14;16.70;1.00
21259;DHT22;10787;53.364;-1.480;2023-09-18T04:48:58;16.70;1.00
21259;DHT22;10787;53.364;-1.480;2023-09-18T04:51:43;16.70;1.00
21259;DHT22;10787;53.364;-1.480;2023-09-18T04:54:28;16.70;1.00
21259;DHT22;10787;53.364;-1.480;2023-09-18T04:57:12;16.70;1.00
21259;DHT22;10787;53.364;-1.480;2023-09-18T04:59:56;16.70;1.00
21259;DHT22;10787;53.364;-1.480;2023-09-18T05:02:41;16.70;1.00
21259;DHT22;10787;53.364;-1.480;2023-09-18T05:05:25;16.70;1.00
21259;DHT22;10787;53.364;-1.480;2023-09-18T05:08:09;16.60;1.00
21259;DHT22;10787;53.364;-1.480;2023-09-18T05:10:54;16.60;1.00
21259;DHT22;10787;53.364;-1.480;2023-09-18T05:13:38;16.60;1.00
21259;DHT22;10787;53.364;-1.480;2023-09-18T05:16:22;16.50;1.00
21259;DHT22;10787;53.364;-1.480;2023-09-18T05:19:06;16.50;1.00
21259;DHT22;10787;53.364;-1.480;2023-09-18T05:21:50;16.50;1.00
21259;DHT22;10787;53.364;-1.480;2023-09-18T05:24:35;16.50;1.00
21259;DHT22;10787;53.364;-1.480;2023-09-18T05:27:19;16.50;1.00
21259;DHT22;10787;53.364;-1.480;2023-09-18T05:30:04;16.50;1.00
21259;DHT22;10787;53.364;-1.480;2023-09-18T05:32:49;16.40;1.00
21259;DHT22;10787;53.364;-1.480;2023-09-18T05:35:43;16.40;1.00
21259;DHT22;10787;53.364;-1.480;2023-09-18T05:38:28;16.40;1.00
21259;DHT22;10787;53.364;-1.480;2023-09-18T05:41:12;16.40;1.00
21259;DHT22;10787;53.364;-1.480;2023-09-18T05:43:57;16.40;1.00
21259;DHT22;10787;53.364;-1.480;2023-09-18T05:46:42;16.40;1.00
21259;DHT22;10787;53.364;-1.480;2023-09-18T05:49:26;16.40;1.00
21259;DHT22;10787;53.364;-1.480;2023-09-18T05:52:11;16.40;1.00
21259;DHT22;10787;53.364;-1.480;2023-09-18T05:54:55;16.40;1.00
21259;DHT22;10787;53.364;-1.480;2023-09-18T05:57:39;16.40;1.00
21259;DHT22;10787;53.364;-1.480;2023-09-18T06:00:24;16.40;1.00
21259;DHT22;10787;53.364;-1.480;2023-09-18T06:03:08;16.40;1.00
21259;DHT22;10787;53.364;-1.480;2023-09-18T06:05:56;16.40;1.00
21259;DHT22;10787;53.364;-1.480;2023-09-18T06:08:40;16.50;1.00
21259;DHT22;10787;53.364;-1.480;2023-09-18T06:11:24;16.60;1.00
21259;DHT22;10787;53.364;-1.480;2023-09-18T06:14:09;16.60;1.00
21259;DHT22;10787;53.364;-1.480;2023-09-18T06:16:53;16.60;1.00
21259;DHT22;10787;53.364;-1.480;2023-09-18T06:19:38;16.60;1.00
21259;DHT22;10787;53.364;-1.480;2023-09-18T06:22:23;16.50;1.00
21259;DHT22;10787;53.364;-1.480;2023-09-18T06:25:08;16.50;1.00
21259;DHT22;10787;53.364;-1.480;2023-09-18T06:27:57;16.40;1.00
21259;DHT22;10787;53.364;-1.480;2023-09-18T06:30:42;16.40;1.00
21259;DHT22;10787;53.364;-1.480;2023-09-18T06:33:26;16.40;1.00
21259;DHT22;10787;53.364;-1.480;2023-09-18T06:36:10;16.40;1.00
21259;DHT22;10787;53.364;-1.480;2023-09-18T06:38:54;16.40;1.00
21259;DHT22;10787;53.364;-1.480;2023-09-18T06:41:38;16.30;99.90
21259;DHT22;10787;53.364;-1.480;2023-09-18T06:44:22;16.30;99.90
21259;DHT22;10787;53.364;-1.480;2023-09-18T06:47:07;16.30;71.00
21259;DHT22;10787;53.364;-1.480;2023-09-18T06:49:52;16.30;64.50
21259;DHT22;10787;53.364;-1.480;2023-09-18T06:52:36;16.30;1.00
21259;DHT22;10787;53.364;-1.480;2023-09-18T06:55:20;16.20;99.90
21259;DHT22;10787;53.364;-1.480;2023-09-18T06:58:05;16.20;99.90
21259;DHT22;10787;53.364;-1.480;2023-09-18T07:00:49;16.20;1.00
21259;DHT22;10787;53.364;-1.480;2023-09-18T07:03:36;16.20;99.90
21259;DHT22;10787;53.364;-1.480;2023-09-18T07:06:21;16.20;1.00
21259;DHT22;10787;53.364;-1.480;2023-09-18T07:09:06;16.20;83.90
21259;DHT22;10787;53.364;-1.480;2023-09-18T07:11:51;16.20;1.00
21259;DHT22;10787;53.364;-1.480;2023-09-18T07:14:35;16.30;49.00
21259;DHT22;10787;53.364;-1.480;2023-09-18T07:17:20;16.20;1.00
21259;DHT22;10787;53.364;-1.480;2023-09-18T07:20:04;16.20;1.00
21259;DHT22;10787;53.364;-1.480;2023-09-18T07:22:57;16.20;1.00
21259;DHT22;10787;53.364;-1.480;2023-09-18T07:25:42;16.30;1.00
21259;DHT22;10787;53.364;-1.480;2023-09-18T07:28:28;16.30;1.00
21259;DHT22;10787;53.364;-1.480;2023-09-18T07:31:12;16.30;1.00
21259;DHT22;10787;53.364;-1.480;2023-09-18T07:33:58;16.20;1.00
21259;DHT22;10787;53.364;-1.480;2023-09-18T07:36:44;16.20;1.00
21259;DHT22;10787;53.364;-1.480;2023-09-18T07:39:31;16.20;99.90
21259;DHT22;10787;53.364;-1.480;2023-09-18T07:42:16;16.10;1.00
21259;DHT22;10787;53.364;-1.480;2023-09-18T07:45:00;16.10;99.50
21259;DHT22;10787;53.364;-1.480;2023-09-18T07:47:44;16.00;99.90
21259;DHT22;10787;53.364;-1.480;2023-09-18T07:50:28;16.00;1.00
21259;DHT22;10787;53.364;-1.480;2023-09-18T07:53:13;15.90;1.00
21259;DHT22;10787;53.364;-1.480;2023-09-18T07:55:57;15.90;1.00
21259;DHT22;10787;53.364;-1.480;2023-09-18T07:58:44;16.00;1.00
21259;DHT22;10787;53.364;-1.480;2023-09-18T08:01:28;16.00;1.00
21259;DHT22;10787;53.364;-1.480;2023-09-18T08:04:12;16.10;99.90
21259;DHT22;10787;53.364;-1.480;2023-09-18T08:06:56;16.10;79.70
21259;DHT22;10787;53.364;-1.480;2023-09-18T08:09:40;16.20;1.00
21259;DHT22;10787;53.364;-1.480;2023-09-18T08:12:24;16.30;1.00
21259;DHT22;10787;53.364;-1.480;2023-09-18T08:15:09;16.30;1.00
21259;DHT22;10787;53.364;-1.480;2023-09-18T08:17:54;16.40;1.00
21259;DHT22;10787;53.364;-1.480;2023-09-18T08:20:44;16.40;1.00
21259;DHT22;10787;53.364;-1.480;2023-09-18T08:23:29;16.60;1.00
21259;DHT22;10787;53.364;-1.480;2023-09-18T08:26:13;16.70;1.00
21259;DHT22;10787;53.364;-1.480;2023-09-18T08:28:58;17.00;1.00
21259;DHT22;10787;53.364;-1.480;2023-09-18T08:31:42;17.10;99.90
21259;DHT22;10787;53.364;-1.480;2023-09-18T08:34:27;17.30;11.70
21259;DHT22;10787;53.364;-1.480;2023-09-18T08:37:11;17.30;1.00
21259;DHT22;10787;53.364;-1.480;2023-09-18T08:39:55;17.30;99.90
21259;DHT22;10787;53.364;-1.480;2023-09-18T08:42:44;17.30;1.00
21259;DHT22;10787;53.364;-1.480;2023-09-18T08:48:26;17.20;99.90
21259;DHT22;10787;53.364;-1.480;2023-09-18T08:51:12;17.30;99.90
21259;DHT22;10787;53.364;-1.480;2023-09-18T08:53:57;17.40;99.90
21259;DHT22;10787;53.364;-1.480;2023-09-18T08:56:42;17.40;1.00
21259;DHT22;10787;53.364;-1.480;2023-09-18T08:59:27;17.30;1.00
21259;DHT22;10787;53.364;-1.480;2023-09-18T09:02:13;17.30;1.00
21259;DHT22;10787;53.364;-1.480;2023-09-18T09:04:58;17.30;1.00
21259;DHT22;10787;53.364;-1.480;2023-09-18T09:07:42;17.40;1.00
21259;DHT22;10787;53.364;-1.480;2023-09-18T09:10:26;17.50;99.90
21259;DHT22;10787;53.364;-1.480;2023-09-18T09:13:13;17.60;1.00
21259;DHT22;10787;53.364;-1.480;2023-09-18T09:15:58;17.70;99.90
21259;DHT22;10787;53.364;-1.480;2023-09-18T09:18:50;17.80;99.90
21259;DHT22;10787;53.364;-1.480;2023-09-18T09:21:41;17.80;99.90
21259;DHT22;10787;53.364;-1.480;2023-09-18T09:24:41;17.90;99.90
21259;DHT22;10787;53.364;-1.480;2023-09-18T09:27:26;18.00;26.20
21259;DHT22;10787;53.364;-1.480;2023-09-18T09:30:11;18.00;7.90
21259;DHT22;10787;53.364;-1.480;2023-09-18T09:32:56;18.10;9.40
21259;DHT22;10787;53.364;-1.480;2023-09-18T09:35:41;18.20;18.80
21259;DHT22;10787;53.364;-1.480;2023-09-18T09:38:33;18.30;7.60
21259;DHT22;10787;53.364;-1.480;2023-09-18T09:41:18;18.50;1.00
21259;DHT22;10787;53.364;-1.480;2023-09-18T09:44:02;18.60;1.00
21259;DHT22;10787;53.364;-1.480;2023-09-18T09:46:50;18.60;1.00
21259;DHT22;10787;53.364;-1.480;2023-09-18T09:49:55;18.60;1.00
21259;DHT22;10787;53.364;-1.480;2023-09-18T09:52:44;18.60;1.00
21259;DHT22;10787;53.364;-1.480;2023-09-18T09:55:32;18.90;1.00
21259;DHT22;10787;53.364;-1.480;2023-09-18T09:58:26;19.10;1.00
21259;DHT22;10787;53.364;-1.480;2023-09-18T10:01:15;19.60;1.00
21259;DHT22;10787;53.364;-1.480;2023-09-18T10:04:09;19.80;1.00
21259;DHT22;10787;53.364;-1.480;2023-09-18T10:07:08;20.10;1.00
21259;DHT22;10787;53.364;-1.480;2023-09-18T10:09:53;20.30;1.00
21259;DHT22;10787;53.364;-1.480;2023-09-18T10:12:39;20.30;1.00
21259;DHT22;10787;53.364;-1.480;2023-09-18T10:15:24;20.30;1.00
21259;DHT22;10787;53.364;-1.480;2023-09-18T10:21:44;20.30;1.00
21259;DHT22;10787;53.364;-1.480;2023-09-18T10:24:37;19.90;1.00
21259;DHT22;10787;53.364;-1.480;2023-09-18T10:27:22;19.50;1.00
21259;DHT22;10787;53.364;-1.480;2023-09-18T10:30:11;19.20;1.00
21259;DHT22;10787;53.364;-1.480;2023-09-18T10:32:56;18.90;1.00
21259;DHT22;10787;53.364;-1.480;2023-09-18T10:35:45;18.60;1.00
21259;DHT22;10787;53.364;-1.480;2023-09-18T10:38:32;18.40;1.00
21259;DHT22;10787;53.364;-1.480;2023-09-18T10:41:20;18.20;1.00
21259;DHT22;10787;53.364;-1.480;2023-09-18T10:44:05;18.00;1.00
21259;DHT22;10787;53.364;-1.480;2023-09-18T10:46:51;17.80;1.00
21259;DHT22;10787;53.364;-1.480;2023-09-18T10:49:36;17.50;1.00
21259;DHT22;10787;53.364;-1.480;2023-09-18T10:52:20;17.30;99.90
21259;DHT22;10787;53.364;-1.480;2023-09-18T10:55:05;17.20;99.90
21259;DHT22;10787;53.364;-1.480;2023-09-18T10:57:53;17.10;99.90
21259;DHT22;10787;53.364;-1.480;2023-09-18T11:00:37;17.00;99.90
21259;DHT22;10787;53.364;-1.480;2023-09-18T11:03:23;16.90;1.00
21259;DHT22;10787;53.364;-1.480;2023-09-18T11:06:11;16.70;1.00
21259;DHT22;10787;53.364;-1.480;2023-09-18T11:09:10;16.60;99.90
21259;DHT22;10787;53.364;-1.480;2023-09-18T11:12:04;16.40;1.00
21259;DHT22;10787;53.364;-1.480;2023-09-18T11:14:57;16.20;1.00
21259;DHT22;10787;53.364;-1.480;2023-09-18T11:17:44;15.80;99.90
21259;DHT22;10787;53.364;-1.480;2023-09-18T11:20:43;15.60;99.90
21259;DHT22;10787;53.364;-1.480;2023-09-18T11:23:34;15.00;1.00
21259;DHT22;10787;53.364;-1.480;2023-09-18T11:26:20;14.50;99.90
21259;DHT22;10787;53.364;-1.480;2023-09-18T11:29:18;14.00;99.90
21259;DHT22;10787;53.364;-1.480;2023-09-18T11:32:13;13.40;1.00
21259;DHT22;10787;53.364;-1.480;2023-09-18T11:35:10;13.00;1.00
21259;DHT22;10787;53.364;-1.480;2023-09-18T11:38:06;12.70;1.00
21259;DHT22;10787;53.364;-1.480;2023-09-18T11:40:54;12.50;1.00
21259;DHT22;10787;53.364;-1.480;2023-09-18T11:43:41;12.40;1.00
21259;DHT22;10787;53.364;-1.480;2023-09-18T11:46:25;12.20;1.00
21259;DHT22;10787;53.364;-1.480;2023-09-18T11:49:13;12.20;1.00
21259;DHT22;10787;53.364;-1.480;2023-09-18T11:52:02;12.20;1.00
21259;DHT22;10787;53.364;-1.480;2023-09-18T11:54:58;12.30;1.00
21259;DHT22;10787;53.364;-1.480;2023-09-18T11:57:45;12.40;1.00
21259;DHT22;10787;53.364;-1.480;2023-09-18T12:00:31;12.50;1.00
21259;DHT22;10787;53.364;-1.480;2023-09-18T12:03:20;12.70;1.00
21259;DHT22;10787;53.364;-1.480;2023-09-18T12:06:11;12.70;1.00
21259;DHT22;10787;53.364;-1.480;2023-09-18T12:08:59;12.80;1.00
21259;DHT22;10787;53.364;-1.480;2023-09-18T12:11:44;12.90;1.00
21259;DHT22;10787;53.364;-1.480;2023-09-18T12:14:33;12.90;1.00
21259;DHT22;10787;53.364;-1.480;2023-09-18T12:17:21;13.00;1.00
21259;DHT22;10787;53.364;-1.480;2023-09-18T12:20:15;13.00;1.00
21259;DHT22;10787;53.364;-1.480;2023-09-18T12:23:03;13.10;1.00
21259;DHT22;10787;53.364;-1.480;2023-09-18T12:25:48;13.20;19.40
21259;DHT22;10787;53.364;-1.480;2023-09-18T12:28:35;13.30;99.90
21259;DHT22;10787;53.364;-1.480;2023-09-18T12:31:22;13.50;1.00
21259;DHT22;10787;53.364;-1.480;2023-09-18T12:34:14;13.70;1.00
21259;DHT22;10787;53.364;-1.480;2023-09-18T12:37:00;14.00;19.80
21259;DHT22;10787;53.364;-1.480;2023-09-18T12:39:47;14.20;1.00
21259;DHT22;10787;53.364;-1.480;2023-09-18T12:42:31;14.60;1.00
21259;DHT22;10787;53.364;-1.480;2023-09-18T12:45:16;15.00;99.90
21259;DHT22;10787;53.364;-1.480;2023-09-18T12:48:01;15.40;1.00
21259;DHT22;10787;53.364;-1.480;2023-09-18T12:50:52;16.00;99.90
21259;DHT22;10787;53.364;-1.480;2023-09-18T12:53:37;16.40;99.90
21259;DHT22;10787;53.364;-1.480;2023-09-18T12:56:22;16.90;1.00
21259;DHT22;10787;53.364;-1.480;2023-09-18T12:59:10;17.30;99.90
21259;DHT22;10787;53.364;-1.480;2023-09-18T13:01:57;17.40;1.00
21259;DHT22;10787;53.364;-1.480;2023-09-18T13:04:57;17.50;1.00
21259;DHT22;10787;53.364;-1.480;2023-09-18T13:07:53;17.70;1.00
21259;DHT22;10787;53.364;-1.480;2023-09-18T13:13:28;18.30;1.00
21259;DHT22;10787;53.364;-1.480;2023-09-18T13:16:16;19.10;1.00
21259;DHT22;10787;53.364;-1.480;2023-09-18T13:19:04;19.30;1.00
21259;DHT22;10787;53.364;-1.480;2023-09-18T13:21:51;20.10;1.00
21259;DHT22;10787;53.364;-1.480;2023-09-18T13:24:35;21.10;1.00
21259;DHT22;10787;53.364;-1.480;2023-09-18T13:27:21;22.60;1.00
21259;DHT22;10787;53.364;-1.480;2023-09-18T13:30:11;23.20;99.90
21259;DHT22;10787;53.364;-1.480;2023-09-18T13:33:11;22.90;24.00
21259;DHT22;10787;53.364;-1.480;2023-09-18T13:35:56;22.50;1.00
21259;DHT22;10787;53.364;-1.480;2023-09-18T13:38:43;21.00;1.00
21259;DHT22;10787;53.364;-1.480;2023-09-18T13:41:28;19.60;1.00
21259;DHT22;10787;53.364;-1.480;2023-09-18T13:44:16;18.60;1.00
21259;DHT22;10787;53.364;-1.480;2023-09-18T13:47:00;18.20;1.00
21259;DHT22;10787;53.364;-1.480;2023-09-18T13:49:48;18.90;1.00
21259;DHT22;10787;53.364;-1.480;2023-09-18T13:52:35;19.10;1.00
21259;DHT22;10787;53.364;-1.480;2023-09-18T13:55:20;20.00;1.00
21259;DHT22;10787;53.364;-1.480;2023-09-18T13:58:06;20.90;1.00
21259;DHT22;10787;53.364;-1.480;2023-09-18T14:00:50;20.80;1.00
21259;DHT22;10787;53.364;-1.480;2023-09-18T14:03:35;20.10;99.90
21259;DHT22;10787;53.364;-1.480;2023-09-18T14:06:19;19.00;99.90
21259;DHT22;10787;53.364;-1.480;2023-09-18T14:09:03;18.70;99.90
21259;DHT22;10787;53.364;-1.480;2023-09-18T14:11:50;18.60;99.90
21259;DHT22;10787;53.364;-1.480;2023-09-18T14:14:34;18.80;15.60
21259;DHT22;10787;53.364;-1.480;2023-09-18T14:17:19;19.10;54.70
21259;DHT22;10787;53.364;-1.480;2023-09-18T14:20:06;20.10;48.10
21259;DHT22;10787;53.364;-1.480;2023-09-18T14:22:51;21.30;99.90
21259;DHT22;10787;53.364;-1.480;2023-09-18T14:25:34;22.20;99.90
21259;DHT22;10787;53.364;-1.480;2023-09-18T14:28:19;22.80;99.90
21259;DHT22;10787;53.364;-1.480;2023-09-18T14:31:04;23.70;99.90
21259;DHT22;10787;53.364;-1.480;2023-09-18T14:33:48;24.90;1.00
21259;DHT22;10787;53.364;-1.480;2023-09-18T14:36:33;24.90;1.00
21259;DHT22;10787;53.364;-1.480;2023-09-18T14:39:17;24.60;1.00
21259;DHT22;10787;53.364;-1.480;2023-09-18T14:42:01;24.00;1.00
21259;DHT22;10787;53.364;-1.480;2023-09-18T14:44:45;24.20;1.00
21259;DHT22;10787;53.364;-1.480;2023-09-18T14:47:29;24.90;99.90
21259;DHT22;10787;53.364;-1.480;2023-09-18T14:50:14;25.00;26.50
21259;DHT22;10787;53.364;-1.480;2023-09-18T14:52:59;24.90;88.90
21259;DHT22;10787;53.364;-1.480;2023-09-18T14:55:43;24.20;99.90
21259;DHT22;10787;53.364;-1.480;2023-09-18T14:58:27;23.50;99.90
21259;DHT22;10787;53.364;-1.480;2023-09-18T15:01:12;23.30;1.00
21259;DHT22;10787;53.364;-1.480;2023-09-18T15:03:57;22.50;99.90
21259;DHT22;10787;53.364;-1.480;2023-09-18T15:06:41;23.20;99.90
21259;DHT22;10787;53.364;-1.480;2023-09-18T15:09:25;23.70;85.10
21259;DHT22;10787;53.364;-1.480;2023-09-18T15:12:09;23.60;1.00
21259;DHT22;10787;53.364;-1.480;2023-09-18T15:14:55;23.50;1.00
21259;DHT22;10787;53.364;-1.480;2023-09-18T15:17:40;23.10;1.00
21259;DHT22;10787;53.364;-1.480;2023-09-18T15:20:24;21.60;1.00
21259;DHT22;10787;53.364;-1.480;2023-09-18T15:23:10;21.20;1.00
21259;DHT22;10787;53.364;-1.480;2023-09-18T15:25:55;21.90;1.00
21259;DHT22;10787;53.364;-1.480;2023-09-18T15:28:40;22.70;1.00
21259;DHT22;10787;53.364;-1.480;2023-09-18T15:31:24;23.10;1.00
21259;DHT22;10787;53.364;-1.480;2023-09-18T15:34:09;23.10;1.00
21259;DHT22;10787;53.364;-1.480;2023-09-18T15:36:53;23.40;1.00
21259;DHT22;10787;53.364;-1.480;2023-09-18T15:39:38;23.50;1.00
21259;DHT22;10787;53.364;-1.480;2023-09-18T15:42:22;24.00;1.00
21259;DHT22;10787;53.364;-1.480;2023-09-18T15:45:08;24.30;8.70
21259;DHT22;10787;53.364;-1.480;2023-09-18T15:47:54;23.90;10.20
21259;DHT22;10787;53.364;-1.480;2023-09-18T15:50:39;24.20;1.00
21259;DHT22;10787;53.364;-1.480;2023-09-18T15:53:26;24.00;1.00
21259;DHT22;10787;53.364;-1.480;2023-09-18T15:56:10;24.10;1.00
21259;DHT22;10787;53.364;-1.480;2023-09-18T15:58:55;24.60;1.00
21259;DHT22;10787;53.364;-1.480;2023-09-18T16:01:41;24.30;1.00
21259;DHT22;10787;53.364;-1.480;2023-09-18T16:04:26;24.30;1.00
21259;DHT22;10787;53.364;-1.480;2023-09-18T16:07:11;24.60;1.00
21259;DHT22;10787;53.364;-1.480;2023-09-18T16:09:57;24.20;1.00
21259;DHT22;10787;53.364;-1.480;2023-09-18T16:12:43;23.90;99.90
21259;DHT22;10787;53.364;-1.480;2023-09-18T16:15:27;24.10;1.00
21259;DHT22;10787;53.364;-1.480;2023-09-18T16:18:11;23.70;1.00
21259;DHT22;10787;53.364;-1.480;2023-09-18T16:20:56;23.80;99.90
21259;DHT22;10787;53.364;-1.480;2023-09-18T16:23:40;23.40;99.90
21259;DHT22;10787;53.364;-1.480;2023-09-18T16:26:24;22.50;1.00
21259;DHT22;10787;53.364;-1.480;2023-09-18T16:29:08;22.80;99.90
21259;DHT22;10787;53.364;-1.480;2023-09-18T16:31:53;23.20;99.90
21259;DHT22;10787;53.364;-1.480;2023-09-18T16:34:37;23.40;99.90
21259;DHT22;10787;53.364;-1.480;2023-09-18T16:37:21;23.60;1.00
21259;DHT22;10787;53.364;-1.480;2023-09-18T16:40:06;22.80;85.40
21259;DHT22;10787;53.364;-1.480;2023-09-18T16:42:50;22.40;99.90
21259;DHT22;10787;53.364;-1.480;2023-09-18T16:45:35;21.20;99.90
21259;DHT22;10787;53.364;-1.480;2023-09-18T16:48:21;20.30;99.90
21259;DHT22;10787;53.364;-1.480;2023-09-18T16:51:06;19.50;1.00
21259;DHT22;10787;53.364;-1.480;2023-09-18T16:53:53;18.50;99.90
21259;DHT22;10787;53.364;-1.480;2023-09-18T16:56:39;18.30;1.00
21259;DHT22;10787;53.364;-1.480;2023-09-18T16:59:23;17.80;1.00
21259;DHT22;10787;53.364;-1.480;2023-09-18T17:02:11;17.40;1.00
21259;DHT22;10787;53.364;-1.480;2023-09-18T17:04:56;17.10;1.00
21259;DHT22;10787;53.364;-1.480;2023-09-18T17:07:40;16.90;99.90
21259;DHT22;10787;53.364;-1.480;2023-09-18T17:10:27;16.70;1.00
21259;DHT22;10787;53.364;-1.480;2023-09-18T17:13:12;16.50;99.90
21259;DHT22;10787;53.364;-1.480;2023-09-18T17:15:57;16.20;99.90
21259;DHT22;10787;53.364;-1.480;2023-09-18T17:18:41;16.10;1.00
21259;DHT22;10787;53.364;-1.480;2023-09-18T17:21:26;16.00;99.90
21259;DHT22;10787;53.364;-1.480;2023-09-18T17:24:10;16.00;1.00
21259;DHT22;10787;53.364;-1.480;2023-09-18T17:26:55;16.00;1.00
21259;DHT22;10787;53.364;-1.480;2023-09-18T17:29:39;15.80;99.90
21259;DHT22;10787;53.364;-1.480;2023-09-18T17:32:23;15.70;1.00
21259;DHT22;10787;53.364;-1.480;2023-09-18T17:35:08;15.60;1.00